createdAt,value
2019-01-29T00:00:08.988Z,87.80
2019-01-29T00:03:12.878Z,87.72
2019-01-29T00:06:16.676Z,88.14
2019-01-29T00:09:20.496Z,88.65
2019-01-29T00:12:24.313Z,88.84
2019-01-29T00:15:28.226Z,89.21
2019-01-29T00:18:32.008Z,89.27
2019-01-29T00:21:35.838Z,89.49
2019-01-29T00:24:39.646Z,89.82
2019-01-29T00:27:43.522Z,89.92
2019-01-29T00:30:47.386Z,89.86
2019-01-29T00:33:51.356Z,89.98
2019-01-29T00:36:55.155Z,90.02
2019-01-29T00:39:58.957Z,89.98
2019-01-29T00:43:02.755Z,89.52
2019-01-29T00:46:06.820Z,89.34
2019-01-29T00:49:10.695Z,89.25
2019-01-29T00:52:14.510Z,89.33
2019-01-29T00:55:18.491Z,89.56
2019-01-29T00:58:22.387Z,89.59
2019-01-29T01:01:26.253Z,89.25
2019-01-29T01:04:30.076Z,89.03
2019-01-29T01:07:33.942Z,89.37
2019-01-29T01:10:37.850Z,89.42
2019-01-29T01:13:41.658Z,89.47
2019-01-29T01:16:45.548Z,89.46
2019-01-29T01:19:49.355Z,89.29
2019-01-29T01:22:53.248Z,89.29
2019-01-29T01:25:57.047Z,89.29
2019-01-29T01:29:00.871Z,89.04
2019-01-29T01:32:04.828Z,88.95
2019-01-29T01:35:09.281Z,88.77
2019-01-29T01:38:13.236Z,88.83
2019-01-29T01:41:17.109Z,88.52
2019-01-29T01:44:20.977Z,88.84
2019-01-29T01:47:24.865Z,89.03
2019-01-29T01:50:28.756Z,89.08
2019-01-29T01:53:32.545Z,89.07
2019-01-29T01:56:36.345Z,89.05
2019-01-29T01:59:40.221Z,89.23
2019-01-29T02:02:44.169Z,89.58
2019-01-29T02:05:48.053Z,89.69
2019-01-29T02:08:51.855Z,89.71
2019-01-29T02:11:55.656Z,89.96
2019-01-29T02:14:59.465Z,90.12
2019-01-29T02:18:03.422Z,90.03
2019-01-29T02:21:07.230Z,89.86
2019-01-29T02:24:11.035Z,89.75
2019-01-29T02:27:14.835Z,89.73
2019-01-29T02:30:20.757Z,89.42
2019-01-29T02:33:25.179Z,89.40
2019-01-29T02:36:29.222Z,89.32
2019-01-29T02:39:33.139Z,89.26
2019-01-29T02:42:37.020Z,89.31
2019-01-29T02:45:40.833Z,89.67
2019-01-29T02:48:44.645Z,90.26
2019-01-29T02:51:48.465Z,90.87
2019-01-29T02:54:52.347Z,91.34
2019-01-29T02:57:56.136Z,91.81
2019-01-29T03:01:00.024Z,91.89
2019-01-29T03:04:03.885Z,92.06
2019-01-29T03:07:07.805Z,92.11
2019-01-29T03:10:13.797Z,92.30
2019-01-29T03:13:17.611Z,92.17
2019-01-29T03:16:21.500Z,92.48
2019-01-29T03:19:25.386Z,92.85
2019-01-29T03:22:29.265Z,92.81
2019-01-29T03:25:33.216Z,93.05
2019-01-29T03:28:37.016Z,93.13
2019-01-29T03:31:40.991Z,93.34
2019-01-29T03:34:44.788Z,93.27
2019-01-29T03:37:48.946Z,93.21
2019-01-29T03:40:52.837Z,93.10
2019-01-29T03:43:56.828Z,93.08
2019-01-29T03:47:00.697Z,93.04
2019-01-29T03:50:06.103Z,92.98
2019-01-29T03:53:09.994Z,92.91
2019-01-29T03:56:13.789Z,92.82
2019-01-29T03:59:17.640Z,93.10
2019-01-29T04:02:21.509Z,93.41
2019-01-29T04:05:25.333Z,93.57
2019-01-29T04:08:29.225Z,93.62
2019-01-29T04:11:33.023Z,93.86
2019-01-29T04:14:36.817Z,93.74
2019-01-29T04:17:40.899Z,93.78
2019-01-29T04:20:44.695Z,93.81
2019-01-29T04:23:48.591Z,93.81
2019-01-29T04:26:52.458Z,93.77
2019-01-29T04:29:56.273Z,93.82
2019-01-29T04:33:00.078Z,93.82
2019-01-29T04:36:04.201Z,93.77
2019-01-29T04:39:09.120Z,93.85
2019-01-29T04:42:13.041Z,93.87
2019-01-29T04:45:17.592Z,93.94
2019-01-29T04:48:21.426Z,93.94
2019-01-29T04:51:25.337Z,93.93
2019-01-29T04:54:29.198Z,93.90
2019-01-29T04:57:32.994Z,93.86
2019-01-29T05:00:36.900Z,93.88
2019-01-29T05:03:40.767Z,93.83
2019-01-29T05:06:44.677Z,93.79
2019-01-29T05:09:48.870Z,93.78
2019-01-29T05:12:52.790Z,93.81
2019-01-29T05:15:56.640Z,93.74
2019-01-29T05:19:00.534Z,93.68
2019-01-29T05:22:04.745Z,93.81
2019-01-29T05:25:09.212Z,93.84
2019-01-29T05:28:13.072Z,93.81
2019-01-29T05:31:16.896Z,93.72
2019-01-29T05:34:20.787Z,93.64
2019-01-29T05:37:24.605Z,93.65
2019-01-29T05:40:28.490Z,93.61
2019-01-29T05:43:32.321Z,93.52
2019-01-29T05:46:36.213Z,93.45
2019-01-29T05:49:40.070Z,93.45
2019-01-29T05:52:44.041Z,93.39
2019-01-29T05:55:47.932Z,93.36
2019-01-29T05:58:51.805Z,93.40
2019-01-29T06:01:55.708Z,93.37
2019-01-29T06:04:59.652Z,93.35
2019-01-29T06:08:05.125Z,93.31
2019-01-29T06:11:09.141Z,93.35
2019-01-29T06:14:12.969Z,93.37
2019-01-29T06:17:16.825Z,93.35
2019-01-29T06:20:23.850Z,93.29
2019-01-29T06:23:27.684Z,93.29
2019-01-29T06:26:31.659Z,93.29
2019-01-29T06:29:35.534Z,93.28
2019-01-29T06:32:39.494Z,93.29
2019-01-29T06:35:43.384Z,93.27
2019-01-29T06:38:47.342Z,93.21
2019-01-29T06:41:51.362Z,93.17
2019-01-29T06:44:55.214Z,93.21
2019-01-29T06:47:59.118Z,93.21
2019-01-29T06:51:02.956Z,93.19
2019-01-29T06:54:06.847Z,93.16
2019-01-29T06:57:10.699Z,93.19
2019-01-29T07:00:20.439Z,93.17
2019-01-29T07:03:24.326Z,93.26
2019-01-29T07:06:28.160Z,93.21
2019-01-29T07:09:32.160Z,93.46
2019-01-29T07:12:35.983Z,93.78
2019-01-29T07:16:03.577Z,93.89
2019-01-29T07:19:21.027Z,93.77
2019-01-29T07:22:24.852Z,94.02
2019-01-29T07:25:28.738Z,93.77
2019-01-29T07:28:32.704Z,93.95
2019-01-29T07:31:36.692Z,94.03
2019-01-29T07:34:40.612Z,94.04
2019-01-29T07:37:44.423Z,94.21
2019-01-29T07:40:48.344Z,94.21
2019-01-29T07:43:52.337Z,94.10
2019-01-29T07:46:56.294Z,94.19
2019-01-29T07:50:00.268Z,94.36
2019-01-29T07:53:04.271Z,94.30
2019-01-29T07:56:08.122Z,94.15
2019-01-29T07:59:12.092Z,94.12
2019-01-29T08:02:15.895Z,94.20
2019-01-29T08:05:20.787Z,94.27
2019-01-29T08:08:24.778Z,94.33
2019-01-29T08:11:28.672Z,94.39
2019-01-29T08:14:32.640Z,94.41
2019-01-29T08:17:36.487Z,94.41
2019-01-29T08:20:40.462Z,94.43
2019-01-29T08:23:44.267Z,94.47
2019-01-29T08:26:48.099Z,94.51
2019-01-29T08:29:51.947Z,94.55
2019-01-29T08:32:55.735Z,94.58
2019-01-29T08:35:59.655Z,94.68
2019-01-29T08:39:04.893Z,94.95
2019-01-29T08:42:08.740Z,95.14
2019-01-29T08:45:12.821Z,95.33
2019-01-29T08:48:16.773Z,94.77
2019-01-29T08:51:20.656Z,94.57
2019-01-29T08:54:26.054Z,94.76
2019-01-29T08:57:30.033Z,95.02
2019-01-29T09:00:33.867Z,95.11
2019-01-29T09:03:37.729Z,95.07
2019-01-29T09:06:41.636Z,95.10
2019-01-29T09:09:45.448Z,95.18
2019-01-29T09:12:49.444Z,95.21
2019-01-29T09:15:53.240Z,95.23
2019-01-29T09:18:57.121Z,95.26
2019-01-29T09:22:00.967Z,95.25
2019-01-29T09:25:05.604Z,95.24
2019-01-29T09:28:09.491Z,95.27
2019-01-29T09:31:13.464Z,95.27
2019-01-29T09:34:17.267Z,95.30
2019-01-29T09:37:21.082Z,95.26
2019-01-29T09:40:24.963Z,95.24
2019-01-29T09:43:28.954Z,95.10
2019-01-29T09:46:32.767Z,95.12
2019-01-29T09:49:36.549Z,95.19
2019-01-29T09:52:40.548Z,95.16
2019-01-29T09:55:44.410Z,95.19
2019-01-29T09:58:48.214Z,95.21
2019-01-29T10:01:52.000Z,95.24
2019-01-29T10:04:55.783Z,95.20
2019-01-29T10:08:00.410Z,95.22
2019-01-29T10:11:04.303Z,95.27
2019-01-29T10:14:08.251Z,95.27
2019-01-29T10:17:12.536Z,95.28
2019-01-29T10:20:16.537Z,95.31
2019-01-29T10:23:20.351Z,95.32
2019-01-29T10:26:24.127Z,95.33
2019-01-29T10:29:28.018Z,95.34
2019-01-29T10:32:31.909Z,95.33
2019-01-29T10:35:35.773Z,95.29
2019-01-29T10:38:39.572Z,95.23
2019-01-29T10:41:43.389Z,95.22
2019-01-29T10:44:47.209Z,95.18
2019-01-29T10:47:51.062Z,95.04
2019-01-29T10:50:55.133Z,95.15
2019-01-29T10:53:59.041Z,95.04
2019-01-29T10:57:02.862Z,95.03
2019-01-29T11:00:12.165Z,94.94
2019-01-29T11:03:16.211Z,94.94
2019-01-29T11:06:20.187Z,94.34
2019-01-29T11:09:25.611Z,93.61
2019-01-29T11:12:29.611Z,93.27
2019-01-29T11:15:36.117Z,93.16
2019-01-29T11:18:40.099Z,92.88
2019-01-29T11:21:44.060Z,92.75
2019-01-29T11:24:48.102Z,92.92
2019-01-29T11:27:52.117Z,92.75
2019-01-29T11:30:55.948Z,92.81
2019-01-29T11:33:59.856Z,92.94
2019-01-29T11:37:03.767Z,93.10
2019-01-29T11:40:10.581Z,93.11
2019-01-29T11:43:14.542Z,93.22
2019-01-29T11:46:18.566Z,93.22
2019-01-29T11:49:22.426Z,93.35
2019-01-29T11:52:26.257Z,93.37
2019-01-29T11:55:30.226Z,93.36
2019-01-29T11:58:34.205Z,93.21
2019-01-29T12:01:38.067Z,93.49
2019-01-29T12:04:41.915Z,93.74
2019-01-29T12:07:45.953Z,93.80
2019-01-29T12:10:49.949Z,93.80
2019-01-29T12:13:53.851Z,94.00
2019-01-29T12:16:57.847Z,93.84
2019-01-29T12:20:01.784Z,93.90
2019-01-29T12:23:05.751Z,93.83
2019-01-29T12:26:13.327Z,93.29
2019-01-29T12:29:15.513Z,93.14
2019-01-29T12:32:19.509Z,92.54
2019-01-29T12:35:23.790Z,92.29
2019-01-29T12:38:27.910Z,91.87
2019-01-29T12:41:31.889Z,91.58
2019-01-29T12:44:35.754Z,91.71
2019-01-29T12:47:39.680Z,91.60
2019-01-29T12:50:49.123Z,91.82
2019-01-29T12:53:57.184Z,91.34
2019-01-29T12:57:01.139Z,91.04
2019-01-29T13:00:07.329Z,90.72
2019-01-29T13:03:11.245Z,90.72
2019-01-29T13:06:15.158Z,89.99
2019-01-29T13:09:19.047Z,89.46
2019-01-29T13:12:23.063Z,89.21
2019-01-29T13:15:28.381Z,88.28
2019-01-29T13:18:32.388Z,88.50
2019-01-29T13:21:36.238Z,88.52
2019-01-29T13:24:40.125Z,88.76
2019-01-29T13:27:44.035Z,87.18
2019-01-29T13:30:48.027Z,86.84
2019-01-29T13:33:51.924Z,86.97
2019-01-29T13:36:55.893Z,87.59
2019-01-29T13:39:59.812Z,86.73
2019-01-29T13:43:03.798Z,86.31
2019-01-29T13:46:07.817Z,85.73
2019-01-29T13:49:11.751Z,85.94
2019-01-29T13:52:15.734Z,85.36
2019-01-29T13:55:19.743Z,84.53
2019-01-29T13:58:23.658Z,85.17
2019-01-29T14:01:27.527Z,85.53
2019-01-29T14:04:31.451Z,85.49
2019-01-29T14:07:35.546Z,85.70
2019-01-29T14:10:39.514Z,85.43
2019-01-29T14:13:43.507Z,86.20
2019-01-29T14:16:47.357Z,85.83
2019-01-29T14:19:51.246Z,86.37
2019-01-29T14:22:55.175Z,86.71
2019-01-29T14:25:59.081Z,86.63
2019-01-29T14:29:03.047Z,86.87
2019-01-29T14:32:07.028Z,86.80
2019-01-29T14:35:11.197Z,86.66
2019-01-29T14:39:20.912Z,86.45
2019-01-29T14:42:25.043Z,86.56
2019-01-29T14:45:29.634Z,86.82
2019-01-29T14:48:33.501Z,86.75
2019-01-29T14:51:37.799Z,86.67
2019-01-29T14:54:42.229Z,86.98
2019-01-29T14:57:46.391Z,87.37
2019-01-29T15:00:50.478Z,87.65
2019-01-29T15:03:54.659Z,88.24
2019-01-29T15:06:58.785Z,88.25
2019-01-29T15:10:02.594Z,88.47
2019-01-29T15:13:06.497Z,88.37
2019-01-29T15:16:33.902Z,88.32
2019-01-29T15:19:40.276Z,88.54
2019-01-29T15:22:44.097Z,88.73
2019-01-29T15:25:48.184Z,88.83
2019-01-29T15:28:52.485Z,89.06
2019-01-29T15:31:56.552Z,89.11
2019-01-29T15:35:00.355Z,88.82
2019-01-29T15:38:04.950Z,89.00
2019-01-29T15:41:09.272Z,89.37
2019-01-29T15:44:13.645Z,89.62
2019-01-29T15:47:18.002Z,89.71
2019-01-29T15:50:22.592Z,89.47
2019-01-29T15:53:26.568Z,89.16
2019-01-29T15:56:30.769Z,89.49
2019-01-29T15:59:45.869Z,89.54
2019-01-29T16:02:49.755Z,89.66
2019-01-29T16:05:53.706Z,89.69
2019-01-29T16:08:57.508Z,89.73
2019-01-29T16:12:01.312Z,89.73
2019-01-29T16:15:06.264Z,89.59
2019-01-29T16:18:10.543Z,89.68
2019-01-29T16:21:14.419Z,89.71
2019-01-29T16:24:18.237Z,89.77
2019-01-29T16:27:23.020Z,89.85
2019-01-29T16:30:27.850Z,89.86
2019-01-29T16:33:31.706Z,89.91
2019-01-29T16:36:35.698Z,90.01
2019-01-29T16:39:39.667Z,90.02
2019-01-29T16:42:43.614Z,90.03
2019-01-29T16:45:47.502Z,90.06
2019-01-29T16:48:51.278Z,90.07
2019-01-29T16:51:55.091Z,90.08
2019-01-29T16:54:58.910Z,90.16
2019-01-29T16:58:02.885Z,90.23
2019-01-29T17:01:07.059Z,90.28
2019-01-29T17:04:11.049Z,90.34
2019-01-29T17:07:14.847Z,90.53
2019-01-29T17:10:19.695Z,90.61
2019-01-29T17:13:23.501Z,90.63
2019-01-29T17:16:27.409Z,90.67
2019-01-29T17:19:31.221Z,90.77
2019-01-29T17:22:35.028Z,90.80
2019-01-29T17:25:38.968Z,90.84
2019-01-29T17:28:42.775Z,90.85
2019-01-29T17:31:46.562Z,90.89
2019-01-29T17:34:50.374Z,90.92
2019-01-29T17:37:54.351Z,90.99
2019-01-29T17:40:58.263Z,91.11
2019-01-29T17:44:02.206Z,91.18
2019-01-29T17:47:06.187Z,91.16
2019-01-29T17:50:15.009Z,91.13
2019-01-29T17:53:18.882Z,91.17
2019-01-29T17:56:22.758Z,91.30
2019-01-29T17:59:26.639Z,91.41
2019-01-29T18:02:30.438Z,91.37
2019-01-29T18:05:34.985Z,91.35
2019-01-29T18:08:38.982Z,91.43
2019-01-29T18:11:42.897Z,91.49
2019-01-29T18:14:46.781Z,91.49
2019-01-29T18:17:50.736Z,91.37
2019-01-29T18:20:54.607Z,91.38
2019-01-29T18:23:58.507Z,91.50
2019-01-29T18:27:02.362Z,91.57
2019-01-29T18:30:09.431Z,91.66
2019-01-29T18:33:13.308Z,91.73
2019-01-29T18:36:17.256Z,91.78
2019-01-29T18:39:21.062Z,91.87
2019-01-29T18:42:24.876Z,91.91
2019-01-29T18:45:28.827Z,91.84
2019-01-29T18:48:32.638Z,91.92
2019-01-29T18:51:36.450Z,91.90
2019-01-29T18:54:40.237Z,91.84
2019-01-29T18:57:44.190Z,91.55
2019-01-29T19:00:54.033Z,91.65
2019-01-29T19:03:53.604Z,91.78
2019-01-29T19:06:57.384Z,91.82
2019-01-29T19:10:01.354Z,92.00
2019-01-29T19:13:06.053Z,92.14
2019-01-29T19:16:09.924Z,92.25
2019-01-29T19:19:14.769Z,92.22
2019-01-29T19:22:18.777Z,92.26
2019-01-29T19:25:22.841Z,92.18
2019-01-29T19:28:26.724Z,92.28
2019-01-29T19:31:30.558Z,92.24
2019-01-29T19:34:34.524Z,92.24
2019-01-29T19:37:38.406Z,92.23
2019-01-29T19:40:42.184Z,92.12
2019-01-29T19:43:46.000Z,92.13
2019-01-29T19:46:49.829Z,92.08
2019-01-29T19:49:53.630Z,92.06
2019-01-29T19:52:59.252Z,92.02
2019-01-29T19:56:03.325Z,92.08
2019-01-29T19:59:07.664Z,92.00
2019-01-29T20:02:11.688Z,91.98
2019-01-29T20:05:15.551Z,91.88
2019-01-29T20:08:19.438Z,91.75
2019-01-29T20:11:23.346Z,91.72
2019-01-29T20:14:27.204Z,91.75
2019-01-29T20:17:31.053Z,91.72
2019-01-29T20:20:37.496Z,91.48
2019-01-29T20:23:41.515Z,91.38
2019-01-29T20:26:45.368Z,91.36
2019-01-29T20:29:49.205Z,91.32
2019-01-29T20:32:53.849Z,91.08
2019-01-29T20:35:57.840Z,90.95
2019-01-29T20:39:01.642Z,91.12
2019-01-29T20:42:05.588Z,91.07
2019-01-29T20:45:10.711Z,91.05
2019-01-29T20:48:14.527Z,91.02
2019-01-29T20:51:18.571Z,91.04
2019-01-29T20:54:22.458Z,90.91
2019-01-29T20:57:26.380Z,90.84
2019-01-29T21:00:32.522Z,90.88
2019-01-29T21:03:36.336Z,90.92
2019-01-29T21:06:40.222Z,90.86
2019-01-29T21:09:44.120Z,90.80
2019-01-29T21:12:48.032Z,90.69
2019-01-29T21:15:51.889Z,90.70
2019-01-29T21:18:55.782Z,90.47
2019-01-29T21:21:59.573Z,90.14
2019-01-29T21:25:03.579Z,90.10
2019-01-29T21:28:07.458Z,90.17
2019-01-29T21:31:11.283Z,89.99
2019-01-29T21:34:15.084Z,89.85
2019-01-29T21:37:18.941Z,90.04
2019-01-29T21:40:22.891Z,90.07
2019-01-29T21:43:26.716Z,89.99
2019-01-29T21:46:30.513Z,89.70
2019-01-29T21:49:34.343Z,89.85
2019-01-29T21:52:38.153Z,89.91
2019-01-29T21:55:42.095Z,89.90
2019-01-29T21:58:45.880Z,89.84
2019-01-29T22:01:49.686Z,89.56
2019-01-29T22:04:53.504Z,89.72
2019-01-29T22:07:57.745Z,89.83
2019-01-29T22:11:01.609Z,89.96
2019-01-29T22:14:05.655Z,89.86
2019-01-29T22:17:09.452Z,89.94
2019-01-29T22:20:16.023Z,89.95
2019-01-29T22:23:19.819Z,90.01
2019-01-29T22:26:23.635Z,90.05
2019-01-29T22:29:27.446Z,90.10
2019-01-29T22:32:31.265Z,90.15
2019-01-29T22:35:35.227Z,90.28
2019-01-29T22:38:39.116Z,90.41
2019-01-29T22:41:42.989Z,90.41
2019-01-29T22:44:46.951Z,90.50
2019-01-29T22:47:50.911Z,90.39
2019-01-29T22:50:54.819Z,90.44
2019-01-29T22:53:59.583Z,90.50
2019-01-29T22:57:03.615Z,90.43
2019-01-29T23:00:43.044Z,90.49
2019-01-29T23:03:49.902Z,90.40
2019-01-29T23:07:14.316Z,90.54
2019-01-29T23:10:19.469Z,90.67
2019-01-29T23:13:23.269Z,90.72
2019-01-29T23:16:27.097Z,90.74
2019-01-29T23:19:30.895Z,90.75
2019-01-29T23:22:34.790Z,90.83
2019-01-29T23:25:38.585Z,90.89
2019-01-29T23:28:42.444Z,90.94
2019-01-29T23:31:46.386Z,90.96
2019-01-29T23:34:50.219Z,91.01
2019-01-29T23:37:54.167Z,91.01
2019-01-29T23:40:58.006Z,90.98
2019-01-29T23:44:01.823Z,90.96
2019-01-29T23:47:05.799Z,90.98
2019-01-29T23:50:11.509Z,91.02
2019-01-29T23:53:15.313Z,90.96
2019-01-29T23:56:19.129Z,90.94
2019-01-29T23:59:22.981Z,90.96
